Villa Cavazos, Texas
Current Conditions -  °F | °C
As of 2:53 PM on Tuesday 27 Jan 2015 (Local Time) from KBRO Reporting Station
Clear Clear  
Wind Chill: 79°   Ceiling: Unl
Heat Index: 79°   Visibility: 10mi
Dew Point: 38°   Wind: 7mph
Humidity: 23%   Direction: 180°S
Pressure: 30.17"   Gusts: NA
Location:  26.0002°N, 97.5729°W
Report Text: KBRO 272053Z 18006KT 10SM CLR 26/03 A3017 RMK AO2 SLP215 T02610033 56022
Loading
Personal Weather Stations






























Interactive Weather Map New forecast layout! Learn more

10-Day Weather Forecast

Advertisements
Track Severe Weather on mobile